Time;durP1;ratioP1;P1;durP2;ratioP2;P2;SDS_P1;SDS_P2;PMS_P1;PMS_P2;Temp;Humidity;BMP_temperature;BMP_pressure;BME280_temperature;BME280_humidity;BME280_pressure;Samples;Min_cycle;Max_cycle;Signal;HPM_P1;HPM_P2
2023/06/07 00:01:59;;;;;;;11.75;3.70;;;12.40;99.90;;;;;;4940517;29;20043;-86
2023/06/07 00:07:12;;;;;;;10.20;3.97;;;12.30;99.90;;;;;;4956322;29;20394;-85
2023/06/07 00:09:38;;;;;;;15.90;3.78;;;12.30;99.90;;;;;;4940074;29;20110;-84
2023/06/07 00:12:06;;;;;;;8.90;3.58;;;12.30;99.90;;;;;;4955133;29;20043;-86
2023/06/07 00:14:34;;;;;;;12.85;4.38;;;12.30;99.90;;;;;;4940235;29;20067;-86
2023/06/07 00:17:02;;;;;;;11.75;4.05;;;12.20;99.90;;;;;;4939607;29;20540;-84
2023/06/07 00:19:29;;;;;;;11.93;3.92;;;12.20;99.90;;;;;;4956183;29;20035;-85
2023/06/07 00:22:01;;;;;;;11.82;3.50;;;12.20;99.90;;;;;;4939981;29;20146;-86
2023/06/07 00:27:14;;;;;;;11.45;4.10;;;12.30;99.90;;;;;;4956000;29;20070;-87
2023/06/07 00:29:41;;;;;;;9.40;3.80;;;12.30;99.90;;;;;;4956077;29;20123;-88
2023/06/07 00:32:08;;;;;;;10.80;3.97;;;12.30;99.90;;;;;;4971217;28;20047;-86
2023/06/07 00:34:38;;;;;;;13.63;4.05;;;12.20;99.90;;;;;;4956829;28;20134;-86
2023/06/07 00:37:05;;;;;;;12.30;3.97;;;12.30;99.90;;;;;;4971184;28;20160;-86
2023/06/07 00:39:33;;;;;;;10.57;3.63;;;12.30;99.90;;;;;;4971799;28;20071;-84
2023/06/07 00:42:00;;;;;;;10.20;3.75;;;12.30;99.90;;;;;;4971813;28;20054;-85
2023/06/07 00:44:29;;;;;;;11.38;4.05;;;12.30;99.90;;;;;;4953600;29;20051;-87
2023/06/07 00:46:56;;;;;;;12.07;4.65;;;12.30;99.90;;;;;;4955926;29;20043;-84
2023/06/07 00:49:23;;;;;;;16.05;3.80;;;12.30;99.90;;;;;;4955628;29;20138;-85
2023/06/07 00:51:49;;;;;;;8.93;3.65;;;12.30;99.90;;;;;;4970777;28;20106;-87
2023/06/07 00:54:19;;;;;;;14.07;3.85;;;12.20;99.90;;;;;;4971837;28;20466;-86
2023/06/07 00:56:49;;;;;;;12.40;3.45;;;12.20;99.90;;;;;;4971292;28;20035;-87
2023/06/07 00:59:16;;;;;;;13.65;4.78;;;12.30;99.90;;;;;;4973309;28;20078;-84
2023/06/07 01:01:44;;;;;;;13.07;3.60;;;12.30;99.90;;;;;;4975240;28;20047;-87
2023/06/07 01:04:12;;;;;;;9.73;3.65;;;12.30;99.90;;;;;;4974611;28;20039;-88
2023/06/07 01:06:39;;;;;;;9.73;3.33;;;12.20;99.90;;;;;;4975585;28;20098;-86
2023/06/07 01:09:12;;;;;;;10.85;3.72;;;12.20;99.90;;;;;;4960147;28;20043;-86
2023/06/07 01:11:39;;;;;;;10.82;3.88;;;12.20;99.90;;;;;;4974292;28;20363;-85
2023/06/07 01:16:56;;;;;;;11.68;4.07;;;12.10;99.90;;;;;;4958457;29;20109;-86
2023/06/07 01:19:23;;;;;;;12.98;3.92;;;12.10;99.90;;;;;;4975214;28;20074;-86
2023/06/07 01:21:51;;;;;;;8.52;3.75;;;12.10;99.90;;;;;;4975042;28;20051;-87
2023/06/07 01:24:19;;;;;;;11.30;3.83;;;12.10;99.90;;;;;;4958217;29;20054;-83
2023/06/07 01:26:46;;;;;;;15.30;3.85;;;12.10;99.90;;;;;;4975000;28;20382;-85
2023/06/07 01:29:12;;;;;;;13.80;3.70;;;12.10;99.90;;;;;;4975060;28;20110;-84
2023/06/07 01:31:40;;;;;;;8.98;3.67;;;12.10;99.90;;;;;;4973821;28;20077;-84
2023/06/07 01:34:08;;;;;;;14.38;3.75;;;12.10;99.90;;;;;;4974964;28;20035;-87
2023/06/07 01:36:35;;;;;;;11.45;3.85;;;12.00;99.90;;;;;;4974185;28;20051;-87
2023/06/07 01:39:02;;;;;;;10.10;3.88;;;12.10;99.90;;;;;;4975142;28;20459;-84
2023/06/07 01:41:28;;;;;;;12.05;3.53;;;12.00;99.90;;;;;;4974632;28;20043;-84
2023/06/07 01:43:55;;;;;;;12.95;3.53;;;12.00;99.90;;;;;;4974007;28;20473;-86
2023/06/07 01:46:23;;;;;;;9.82;3.30;;;12.00;99.90;;;;;;4974789;28;20045;-84
2023/06/07 01:48:53;;;;;;;9.32;3.22;;;11.90;99.90;;;;;;4974147;28;20147;-84
2023/06/07 01:51:19;;;;;;;9.20;3.75;;;12.00;99.90;;;;;;4973532;28;20054;-85
2023/06/07 01:53:46;;;;;;;14.88;3.40;;;11.90;99.90;;;;;;4958423;29;20434;-86
2023/06/07 01:56:13;;;;;;;12.20;3.72;;;12.00;99.90;;;;;;4974362;28;20054;-89
2023/06/07 01:58:40;;;;;;;12.75;3.78;;;11.90;99.90;;;;;;4973825;28;20055;-85
2023/06/07 02:01:07;;;;;;;12.20;4.13;;;12.00;99.90;;;;;;4974331;28;20126;-88
2023/06/07 02:03:36;;;;;;;10.32;3.78;;;12.00;99.90;;;;;;4973290;28;20051;-85
2023/06/07 02:06:03;;;;;;;9.70;4.25;;;11.90;99.90;;;;;;4974256;28;20102;-89
2023/06/07 02:08:30;;;;;;;12.95;3.85;;;11.90;99.90;;;;;;4974367;28;20047;-87
2023/06/07 02:10:58;;;;;;;11.13;3.78;;;11.90;99.90;;;;;;4956033;28;20481;-85
2023/06/07 02:13:25;;;;;;;12.13;3.50;;;11.90;99.90;;;;;;4974003;28;20447;-85
2023/06/07 02:15:54;;;;;;;13.95;3.88;;;11.90;99.90;;;;;;4974196;28;20102;-84
2023/06/07 02:18:21;;;;;;;10.18;3.40;;;11.80;99.90;;;;;;4957552;29;20047;-86
2023/06/07 02:20:52;;;;;;;10.90;4.13;;;11.80;99.90;;;;;;4973856;28;20031;-86
2023/06/07 02:23:19;;;;;;;8.02;3.47;;;11.80;99.90;;;;;;4957325;29;20057;-84
2023/06/07 02:25:46;;;;;;;9.70;3.33;;;11.80;99.90;;;;;;4974182;28;20051;-84
2023/06/07 02:28:16;;;;;;;9.23;3.50;;;11.80;99.90;;;;;;4974239;28;20059;-87
2023/06/07 02:30:42;;;;;;;12.48;3.60;;;11.80;99.90;;;;;;4973273;28;20043;-84
2023/06/07 02:33:13;;;;;;;15.10;4.18;;;11.80;99.90;;;;;;4958503;29;20046;-85
2023/06/07 02:35:43;;;;;;;12.73;3.88;;;11.80;99.90;;;;;;4973862;28;20086;-89
2023/06/07 02:38:10;;;;;;;12.25;3.33;;;11.70;99.90;;;;;;4973343;28;20106;-86
2023/06/07 02:40:37;;;;;;;11.95;3.58;;;11.70;99.90;;;;;;4973859;28;20047;-87
2023/06/07 02:43:03;;;;;;;13.70;3.60;;;11.70;99.90;;;;;;4973573;28;20043;-87
2023/06/07 02:45:30;;;;;;;12.52;3.92;;;11.70;99.90;;;;;;4973097;28;20130;-86
2023/06/07 02:47:57;;;;;;;13.05;3.88;;;11.80;99.90;;;;;;4957768;29;20102;-86
2023/06/07 02:50:26;;;;;;;11.30;3.70;;;11.80;99.90;;;;;;4956837;29;20066;-88
2023/06/07 02:52:55;;;;;;;11.77;3.85;;;11.80;99.90;;;;;;4972825;28;20039;-87
2023/06/07 02:55:22;;;;;;;11.95;3.60;;;11.80;99.90;;;;;;4973631;28;20079;-88
2023/06/07 02:57:49;;;;;;;9.73;3.47;;;11.80;99.90;;;;;;4972647;28;20039;-86
2023/06/07 03:00:18;;;;;;;9.20;3.67;;;11.90;99.90;;;;;;4957317;29;20126;-85
2023/06/07 03:02:50;;;;;;;10.95;4.35;;;11.80;99.90;;;;;;4973494;28;20047;-85
2023/06/07 03:05:20;;;;;;;9.45;3.58;;;11.80;99.90;;;;;;4972674;28;20047;-86
2023/06/07 03:07:50;;;;;;;12.52;3.80;;;11.80;99.90;;;;;;4972792;28;20106;-84
2023/06/07 03:10:18;;;;;;;17.52;4.53;;;11.90;99.90;;;;;;4972273;28;20458;-85
2023/06/07 03:12:46;;;;;;;10.57;3.80;;;11.80;99.90;;;;;;4956531;29;20047;-89
2023/06/07 03:17:45;;;;;;;10.98;4.10;;;11.80;99.90;;;;;;4956677;29;20051;-86
2023/06/07 03:20:13;;;;;;;14.90;3.92;;;11.70;99.90;;;;;;4973246;28;20050;-86
2023/06/07 03:22:44;;;;;;;9.93;3.80;;;11.70;99.90;;;;;;4957101;28;20054;-85
2023/06/07 03:25:14;;;;;;;10.32;4.07;;;11.70;99.90;;;;;;4972387;28;20047;-85
2023/06/07 03:27:45;;;;;;;14.07;4.38;;;11.70;99.90;;;;;;4956637;29;20142;-85
2023/06/07 03:30:22;;;;;;;13.98;3.90;;;11.70;99.90;;;;;;4956085;29;20066;-85
2023/06/07 03:32:50;;;;;;;11.95;4.40;;;11.80;99.90;;;;;;4956500;29;20130;-86
2023/06/07 03:38:08;;;;;;;12.98;4.25;;;11.80;99.90;;;;;;4955981;29;20051;-87
2023/06/07 03:40:35;;;;;;;9.27;3.75;;;11.70;99.90;;;;;;4956693;29;20083;-83
2023/06/07 03:43:02;;;;;;;13.77;4.70;;;11.70;99.90;;;;;;4972622;28;20043;-84
2023/06/07 03:48:15;;;;;;;11.27;4.20;;;11.70;99.90;;;;;;4956552;29;20138;-86
2023/06/07 03:50:44;;;;;;;15.45;4.47;;;11.70;99.90;;;;;;4955898;29;20374;-85
2023/06/07 03:53:13;;;;;;;12.77;4.55;;;11.70;99.90;;;;;;4957323;29;20039;-85
2023/06/07 03:58:49;;;;;;;14.20;4.38;;;11.70;99.90;;;;;;4971713;28;20027;-84
2023/06/07 04:01:21;;;;;;;13.63;3.92;;;11.70;99.90;;;;;;4956229;29;20385;-85
2023/06/07 04:03:48;;;;;;;14.80;4.03;;;11.70;99.90;;;;;;4956537;28;20421;-87
2023/06/07 04:06:16;;;;;;;14.50;4.28;;;11.60;99.90;;;;;;4972263;28;20051;-86
2023/06/07 04:08:43;;;;;;;10.25;3.95;;;11.60;99.90;;;;;;4956264;29;20048;-87
2023/06/07 04:11:10;;;;;;;11.68;4.50;;;11.60;99.90;;;;;;4955445;29;20047;-83
2023/06/07 04:13:38;;;;;;;13.48;4.35;;;11.60;99.90;;;;;;4972222;28;20114;-87
2023/06/07 04:16:05;;;;;;;21.20;4.07;;;11.70;99.90;;;;;;4956198;29;20511;-85
2023/06/07 04:18:32;;;;;;;14.93;4.25;;;11.70;99.90;;;;;;4955441;29;20063;-86
2023/06/07 04:20:59;;;;;;;17.92;4.60;;;11.70;99.90;;;;;;4957217;28;20035;-86
2023/06/07 04:23:26;;;;;;;15.68;4.45;;;11.70;99.90;;;;;;4939505;29;20058;-83
2023/06/07 04:28:41;;;;;;;12.00;4.70;;;11.60;99.90;;;;;;4956892;28;20047;-87
2023/06/07 04:31:09;;;;;;;12.40;4.63;;;11.60;99.90;;;;;;4939674;29;20047;-85
2023/06/07 04:33:37;;;;;;;12.20;5.10;;;11.50;99.90;;;;;;4942151;29;20119;-86
2023/06/07 04:36:08;;;;;;;12.45;4.30;;;11.50;99.90;;;;;;4944305;29;20046;-86
2023/06/07 04:38:41;;;;;;;15.50;4.95;;;11.50;99.90;;;;;;4944057;29;20063;-85
2023/06/07 04:41:32;;;;;;;19.20;4.50;;;11.50;99.90;;;;;;4945942;29;20058;-84
2023/06/07 04:44:05;;;;;;;10.27;3.55;;;11.50;99.90;;;;;;4943611;29;20478;-87
2023/06/07 04:46:39;;;;;;;11.98;4.72;;;11.50;99.90;;;;;;4944539;29;20053;-84
2023/06/07 04:49:12;;;;;;;14.70;4.68;;;11.50;99.90;;;;;;4959804;29;20067;-87
2023/06/07 04:51:39;;;;;;;14.40;4.32;;;11.50;99.90;;;;;;4942725;29;20047;-85
2023/06/07 04:54:16;;;;;;;13.63;4.90;;;11.50;99.90;;;;;;4959542;29;20043;-86
2023/06/07 04:56:46;;;;;;;10.52;4.57;;;11.50;99.90;;;;;;4943617;29;20058;-87
2023/06/07 04:59:14;;;;;;;10.45;4.30;;;11.60;99.90;;;;;;4959615;29;20047;-84
2023/06/07 05:01:43;;;;;;;14.65;5.10;;;11.60;99.90;;;;;;4959355;29;20382;-84
2023/06/07 05:04:12;;;;;;;13.13;4.40;;;11.60;99.90;;;;;;4942989;29;20058;-88
2023/06/07 05:06:47;;;;;;;14.77;4.20;;;11.60;99.90;;;;;;4959512;29;20057;-83
2023/06/07 05:09:15;;;;;;;9.07;3.75;;;11.60;99.90;;;;;;4959372;29;20074;-86
2023/06/07 05:11:42;;;;;;;13.75;4.13;;;11.60;99.90;;;;;;4942562;29;20039;-88
2023/06/07 05:14:10;;;;;;;15.55;3.90;;;11.60;99.90;;;;;;4943334;29;20043;-84
2023/06/07 05:16:38;;;;;;;14.82;4.18;;;11.60;99.90;;;;;;4958934;29;20118;-86
2023/06/07 05:19:08;;;;;;;9.30;3.63;;;11.70;99.90;;;;;;4944110;29;20134;-85
2023/06/07 05:21:37;;;;;;;13.88;4.13;;;11.70;99.90;;;;;;4959040;29;20043;-86
2023/06/07 05:24:07;;;;;;;13.63;4.70;;;11.70;99.90;;;;;;4958422;29;20053;-84
2023/06/07 05:26:34;;;;;;;10.95;3.50;;;11.70;99.90;;;;;;4943047;29;20079;-86
2023/06/07 05:29:02;;;;;;;10.68;3.90;;;11.80;99.90;;;;;;4943267;29;20098;-88
2023/06/07 05:31:30;;;;;;;12.07;3.95;;;11.80;99.90;;;;;;4942445;29;20130;-83
2023/06/07 05:34:00;;;;;;;14.77;4.38;;;11.90;99.90;;;;;;4943502;29;20051;-86
2023/06/07 05:36:27;;;;;;;10.30;3.65;;;11.80;99.90;;;;;;4959070;29;20058;-85
2023/06/07 05:38:54;;;;;;;12.38;3.63;;;11.80;99.90;;;;;;4942247;29;20144;-85
2023/06/07 05:41:21;;;;;;;12.18;3.40;;;11.80;99.90;;;;;;4958717;29;20043;-89
2023/06/07 05:43:49;;;;;;;10.23;3.45;;;11.90;99.90;;;;;;4957990;29;20036;-88
2023/06/07 05:46:16;;;;;;;16.13;4.22;;;12.00;99.90;;;;;;4942764;29;20055;-84
2023/06/07 05:48:44;;;;;;;11.93;3.75;;;11.90;99.90;;;;;;4943268;29;20094;-87
2023/06/07 05:51:14;;;;;;;11.88;4.07;;;11.90;99.90;;;;;;4942328;29;20146;-84
2023/06/07 05:53:40;;;;;;;15.75;4.20;;;11.90;99.90;;;;;;4942718;29;20051;-85
2023/06/07 05:56:09;;;;;;;10.05;3.30;;;11.90;99.90;;;;;;4959734;29;20429;-84
2023/06/07 05:58:36;;;;;;;10.90;3.70;;;12.00;99.90;;;;;;4957787;29;20410;-89
2023/06/07 06:01:05;;;;;;;10.70;3.60;;;12.10;99.90;;;;;;4958618;29;20039;-88
2023/06/07 06:03:31;;;;;;;13.45;4.47;;;12.20;99.90;;;;;;4957685;29;20474;-87
2023/06/07 06:08:46;;;;;;;7.97;3.25;;;12.20;99.90;;;;;;4959361;29;20108;-87
2023/06/07 06:11:13;;;;;;;12.73;3.85;;;12.20;99.90;;;;;;4958191;29;20046;-86
2023/06/07 06:13:39;;;;;;;10.70;3.95;;;12.20;99.90;;;;;;4958228;29;20054;-84
2023/06/07 06:16:06;;;;;;;11.00;3.78;;;12.20;99.90;;;;;;4958212;29;20051;-85
2023/06/07 06:18:36;;;;;;;8.35;4.18;;;12.10;99.90;;;;;;4941862;29;20061;-85
2023/06/07 06:21:03;;;;;;;13.57;3.92;;;12.10;99.90;;;;;;4957885;29;20045;-83
2023/06/07 06:23:30;;;;;;;7.72;3.67;;;12.10;99.90;;;;;;4973501;28;20061;-87
2023/06/07 06:28:43;;;;;;;10.25;4.07;;;12.10;99.90;;;;;;4952513;28;20057;-83
2023/06/07 06:31:11;;;;;;;9.73;3.97;;;12.20;99.90;;;;;;4956248;29;20054;-85
2023/06/07 06:33:38;;;;;;;13.00;4.30;;;12.30;99.90;;;;;;4956872;29;20047;-84
2023/06/07 06:36:05;;;;;;;15.93;4.10;;;12.40;99.90;;;;;;4952186;28;20062;-84
2023/06/07 06:38:32;;;;;;;7.65;3.65;;;12.40;99.90;;;;;;4957580;28;20098;-83
2023/06/07 06:40:58;;;;;;;10.27;3.67;;;12.40;99.90;;;;;;4957219;29;20039;-84
2023/06/07 06:43:25;;;;;;;8.70;3.40;;;12.50;99.90;;;;;;4951351;29;20058;-83
2023/06/07 06:45:58;;;;;;;11.88;4.50;;;12.60;99.90;;;;;;4957315;29;20541;-84
2023/06/07 06:48:25;;;;;;;7.60;3.15;;;12.70;99.90;;;;;;4958333;28;20043;-84
2023/06/07 06:50:52;;;;;;;10.98;3.53;;;12.60;99.90;;;;;;4955931;29;20066;-85
2023/06/07 06:53:19;;;;;;;18.83;4.05;;;12.70;99.90;;;;;;4953247;29;20135;-85
2023/06/07 06:55:47;;;;;;;14.00;4.22;;;12.70;99.90;;;;;;4937618;29;20036;-85
2023/06/07 06:58:14;;;;;;;11.00;3.72;;;12.70;99.90;;;;;;4921145;29;20051;-86
2023/06/07 07:00:41;;;;;;;9.23;4.05;;;12.80;99.90;;;;;;4922044;29;20051;-86
2023/06/07 07:03:08;;;;;;;14.55;4.32;;;12.90;99.90;;;;;;4954045;29;20091;-86
2023/06/07 07:05:37;;;;;;;10.60;3.90;;;12.90;99.90;;;;;;4937344;29;20063;-86
2023/06/07 07:08:04;;;;;;;12.50;3.95;;;12.90;99.90;;;;;;4922144;29;20423;-86
2023/06/07 07:10:31;;;;;;;8.55;3.60;;;12.90;99.90;;;;;;4936811;29;20043;-86
2023/06/07 07:12:57;;;;;;;6.90;3.28;;;12.90;99.90;;;;;;4937857;29;20047;-86
2023/06/07 07:18:13;;;;;;;12.80;3.90;;;13.10;99.90;;;;;;4937100;29;20415;-86
2023/06/07 07:20:40;;;;;;;11.80;3.72;;;13.10;99.90;;;;;;4942557;29;20040;-86
2023/06/07 07:23:06;;;;;;;18.80;4.07;;;13.10;99.90;;;;;;4940860;29;20054;-86
2023/06/07 07:28:20;;;;;;;11.88;3.97;;;13.10;99.90;;;;;;4956589;29;20117;-85
2023/06/07 07:30:48;;;;;;;11.75;3.75;;;13.30;99.90;;;;;;4933812;29;20043;-86
2023/06/07 07:33:15;;;;;;;13.88;3.65;;;13.40;99.90;;;;;;4956031;29;20066;-86
2023/06/07 07:35:41;;;;;;;12.68;3.92;;;13.40;99.90;;;;;;4957180;28;20172;-86
2023/06/07 07:38:10;;;;;;;11.43;3.72;;;13.40;99.90;;;;;;4971802;28;20046;-86
2023/06/07 07:40:37;;;;;;;10.57;4.05;;;13.50;99.90;;;;;;4973056;28;20047;-85
2023/06/07 07:43:04;;;;;;;10.65;3.90;;;13.60;99.90;;;;;;4973439;28;20098;-86
2023/06/07 07:45:30;;;;;;;9.63;3.70;;;13.70;99.90;;;;;;4972323;28;20051;-86
2023/06/07 07:47:57;;;;;;;15.90;4.32;;;13.70;99.90;;;;;;4956338;29;20051;-89
2023/06/07 07:50:24;;;;;;;16.90;4.35;;;13.80;99.90;;;;;;4955476;29;20039;-86
2023/06/07 07:52:53;;;;;;;10.25;4.20;;;13.80;99.90;;;;;;4972295;28;20055;-84
2023/06/07 07:55:22;;;;;;;9.52;4.03;;;13.80;99.90;;;;;;4972113;28;20046;-84
2023/06/07 07:57:49;;;;;;;13.30;4.18;;;13.80;99.90;;;;;;4971179;28;20048;-84
2023/06/07 08:00:16;;;;;;;15.48;3.97;;;13.80;99.90;;;;;;4971786;28;20453;-84
2023/06/07 08:02:45;;;;;;;11.15;4.35;;;13.70;99.90;;;;;;4956259;29;20098;-84
2023/06/07 08:05:12;;;;;;;20.10;4.10;;;13.80;99.90;;;;;;4955159;29;20047;-84
2023/06/07 08:07:39;;;;;;;16.33;4.05;;;14.00;99.90;;;;;;4955910;28;20086;-83
2023/06/07 08:10:06;;;;;;;10.07;3.80;;;14.20;99.90;;;;;;4955444;29;20051;-85
2023/06/07 08:12:33;;;;;;;13.60;4.28;;;14.40;99.90;;;;;;4955834;29;20157;-83
2023/06/07 08:15:01;;;;;;;12.63;3.63;;;14.40;99.90;;;;;;4971769;28;20378;-83
2023/06/07 08:17:28;;;;;;;13.02;4.20;;;14.40;99.90;;;;;;4970976;28;20058;-85
2023/06/07 08:19:54;;;;;;;13.55;4.13;;;14.40;99.90;;;;;;4955430;29;20521;-85
2023/06/07 08:22:21;;;;;;;10.55;3.58;;;14.60;99.90;;;;;;4956482;28;20043;-85
2023/06/07 08:24:50;;;;;;;14.00;4.63;;;14.60;99.90;;;;;;4971049;28;20043;-85
2023/06/07 08:27:17;;;;;;;10.27;3.63;;;14.60;99.90;;;;;;4955592;28;20058;-86
2023/06/07 08:29:44;;;;;;;12.30;3.80;;;14.60;99.90;;;;;;4955849;29;20367;-84
2023/06/07 08:32:10;;;;;;;10.13;3.75;;;14.70;99.90;;;;;;4955498;28;20058;-83
2023/06/07 08:34:40;;;;;;;8.55;3.60;;;14.90;99.90;;;;;;4971503;28;20043;-83
2023/06/07 08:37:07;;;;;;;11.38;4.00;;;15.10;99.90;;;;;;4955741;28;20374;-85
2023/06/07 08:39:34;;;;;;;13.85;3.42;;;15.10;99.90;;;;;;4969856;28;20414;-84
2023/06/07 08:42:01;;;;;;;14.65;4.35;;;15.10;99.90;;;;;;4955212;28;20039;-83
2023/06/07 08:44:28;;;;;;;14.63;4.78;;;15.20;99.90;;;;;;4954569;29;20077;-83
2023/06/07 08:46:55;;;;;;;14.32;4.05;;;15.10;99.90;;;;;;4956061;28;20117;-83
2023/06/07 08:49:22;;;;;;;11.07;3.83;;;15.20;99.90;;;;;;4955406;29;20470;-86
2023/06/07 08:51:49;;;;;;;16.55;4.25;;;15.30;99.90;;;;;;4954353;29;20051;-79
2023/06/07 08:54:26;;;;;;;12.95;3.83;;;15.40;99.90;;;;;;4955268;28;20083;-81
2023/06/07 08:56:53;;;;;;;8.98;4.15;;;15.40;99.90;;;;;;4953894;29;20039;-80
2023/06/07 08:59:20;;;;;;;18.52;4.43;;;15.40;99.90;;;;;;4970873;28;20098;-80
2023/06/07 09:01:47;;;;;;;13.90;4.68;;;15.40;99.90;;;;;;4966014;28;20425;-83
2023/06/07 09:04:18;;;;;;;15.30;3.97;;;15.50;99.90;;;;;;4929839;29;20043;-84
2023/06/07 09:06:45;;;;;;;13.10;4.57;;;15.60;99.90;;;;;;4954996;28;20067;-85
2023/06/07 09:09:15;;;;;;;14.10;4.57;;;15.70;99.90;;;;;;4954507;29;20047;-82
2023/06/07 09:11:42;;;;;;;11.10;3.97;;;15.70;99.90;;;;;;4954839;28;20043;-79
2023/06/07 09:14:09;;;;;;;13.45;4.32;;;15.80;99.90;;;;;;4955027;29;20103;-79
2023/06/07 09:16:36;;;;;;;17.52;3.65;;;15.80;99.90;;;;;;4954188;28;20102;-81
2023/06/07 09:19:02;;;;;;;15.65;3.97;;;15.70;99.90;;;;;;4955117;28;20036;-81
2023/06/07 09:21:29;;;;;;;11.65;3.53;;;15.90;99.90;;;;;;4958849;28;20131;-81
2023/06/07 09:23:56;;;;;;;12.73;4.20;;;15.90;99.90;;;;;;4958014;28;20124;-80
2023/06/07 09:26:23;;;;;;;13.60;4.25;;;16.10;99.90;;;;;;4957796;29;20056;-80
2023/06/07 09:28:50;;;;;;;22.10;4.55;;;16.20;99.90;;;;;;4958734;28;20454;-80
2023/06/07 09:31:17;;;;;;;13.25;4.32;;;16.20;99.90;;;;;;4972610;28;20373;-80
2023/06/07 09:33:46;;;;;;;13.23;4.45;;;16.30;99.90;;;;;;4957646;29;20322;-80
2023/06/07 09:36:15;;;;;;;11.85;4.25;;;16.30;99.90;;;;;;4958727;28;20058;-80
2023/06/07 09:38:41;;;;;;;18.35;4.70;;;16.30;99.90;;;;;;4970412;28;20035;-79
2023/06/07 09:41:12;;;;;;;10.02;4.90;;;16.30;99.90;;;;;;4958483;28;20066;-80
2023/06/07 09:43:39;;;;;;;12.20;4.68;;;16.40;99.90;;;;;;4972999;28;20474;-80
2023/06/07 09:46:06;;;;;;;13.65;4.20;;;16.50;99.90;;;;;;4973608;28;20040;-81
2023/06/07 09:48:33;;;;;;;12.10;4.57;;;16.60;99.90;;;;;;4957673;29;20445;-80
2023/06/07 09:51:00;;;;;;;16.90;4.63;;;16.60;99.90;;;;;;4972932;28;20070;-79
2023/06/07 09:53:27;;;;;;;9.30;3.33;;;16.60;99.90;;;;;;4958648;28;20044;-80
2023/06/07 09:55:54;;;;;;;11.40;4.60;;;16.50;99.90;;;;;;4958047;28;20043;-80
2023/06/07 09:58:22;;;;;;;11.02;4.43;;;16.60;99.90;;;;;;4958478;28;20047;-78
2023/06/07 10:00:52;;;;;;;14.88;4.45;;;16.70;99.90;;;;;;4957626;29;20130;-79
2023/06/07 10:03:19;;;;;;;10.75;4.93;;;16.90;99.90;;;;;;4958369;29;20513;-79
2023/06/07 10:05:48;;;;;;;14.30;4.18;;;16.90;99.90;;;;;;4957779;29;20043;-79
2023/06/07 10:08:14;;;;;;;15.48;5.25;;;16.90;99.90;;;;;;4958715;28;20114;-80
2023/06/07 10:10:41;;;;;;;11.43;4.28;;;17.10;99.90;;;;;;4956854;28;20427;-82
2023/06/07 10:13:08;;;;;;;15.48;4.32;;;17.10;99.90;;;;;;4957720;29;20039;-80
2023/06/07 10:15:35;;;;;;;14.68;3.92;;;17.30;99.90;;;;;;4957805;28;20044;-79
2023/06/07 10:18:02;;;;;;;12.77;4.43;;;17.30;99.90;;;;;;4956907;29;20540;-79
2023/06/07 10:20:29;;;;;;;15.40;4.60;;;17.50;99.90;;;;;;4966974;28;20493;-84
2023/06/07 10:22:57;;;;;;;14.38;4.85;;;17.60;99.90;;;;;;4957191;29;20055;-81
2023/06/07 10:25:24;;;;;;;15.90;4.53;;;17.70;99.90;;;;;;4957343;28;20077;-79
2023/06/07 10:27:51;;;;;;;13.98;4.57;;;17.80;99.90;;;;;;4958385;29;20091;-79
2023/06/07 10:30:18;;;;;;;14.02;4.68;;;17.80;99.90;;;;;;4955748;28;20825;-77
2023/06/07 10:32:45;;;;;;;14.02;4.72;;;17.80;99.90;;;;;;4956730;29;20063;-81
2023/06/07 10:35:12;;;;;;;12.52;4.70;;;17.90;99.90;;;;;;4957325;29;20039;-80
2023/06/07 10:37:41;;;;;;;12.38;4.57;;;17.90;99.90;;;;;;4956428;29;20043;-80
2023/06/07 10:40:12;;;;;;;13.57;4.95;;;17.90;99.90;;;;;;4957905;29;20450;-80
2023/06/07 10:42:43;;;;;;;11.93;4.60;;;18.00;99.90;;;;;;4957974;28;20058;-79
2023/06/07 10:45:16;;;;;;;14.67;4.83;;;17.90;99.90;;;;;;4956189;29;20062;-85
2023/06/07 10:47:43;;;;;;;12.52;4.80;;;18.00;99.90;;;;;;4948501;29;20434;-79
2023/06/07 10:50:10;;;;;;;11.95;4.57;;;18.10;99.90;;;;;;4956590;28;20043;-84
2023/06/07 10:52:37;;;;;;;13.57;4.32;;;18.20;99.90;;;;;;4972573;28;20367;-79
2023/06/07 10:55:04;;;;;;;11.13;4.60;;;18.20;99.90;;;;;;4958183;28;20090;-81
2023/06/07 10:57:31;;;;;;;13.65;4.78;;;18.80;99.90;;;;;;4972068;28;20047;-81
2023/06/07 10:59:57;;;;;;;11.20;4.50;;;19.50;99.90;;;;;;4956335;29;20135;-81
2023/06/07 11:02:24;;;;;;;12.35;4.00;;;19.70;99.90;;;;;;4956850;29;20047;-85
2023/06/07 11:07:41;;;;;;;11.00;4.28;;;20.60;99.90;;;;;;4956824;29;20086;-86
2023/06/07 11:10:08;;;;;;;17.42;4.47;;;21.00;99.90;;;;;;4971660;28;20035;-85
2023/06/07 11:12:36;;;;;;;11.68;4.43;;;20.90;99.90;;;;;;4972638;28;20054;-84
2023/06/07 11:15:04;;;;;;;10.23;4.10;;;20.60;99.90;;;;;;4956235;29;20051;-85
2023/06/07 11:17:31;;;;;;;10.70;4.10;;;20.60;99.90;;;;;;4955384;29;20039;-84
2023/06/07 11:19:59;;;;;;;13.25;3.92;;;20.90;99.90;;;;;;4972190;28;20043;-85
2023/06/07 11:22:26;;;;;;;12.15;4.25;;;21.00;99.90;;;;;;4956095;29;20079;-85
2023/06/07 11:24:55;;;;;;;14.70;4.70;;;21.30;99.90;;;;;;4955492;29;20071;-85
2023/06/07 11:27:22;;;;;;;13.90;5.00;;;21.60;99.90;;;;;;4956422;29;20055;-84
2023/06/07 11:29:49;;;;;;;14.88;4.63;;;21.70;99.90;;;;;;4955969;29;20047;-84
2023/06/07 11:32:16;;;;;;;9.48;4.15;;;22.10;99.90;;;;;;4971662;28;20141;-86
2023/06/07 11:37:16;;;;;;;12.75;4.50;;;22.80;99.90;;;;;;4971637;28;20521;-85
2023/06/07 11:39:43;;;;;;;10.80;5.07;;;23.10;99.90;;;;;;4972538;28;20054;-88
2023/06/07 11:42:10;;;;;;;12.18;4.72;;;23.40;99.90;;;;;;4955716;28;20059;-85
2023/06/07 11:44:37;;;;;;;15.85;5.15;;;23.50;99.90;;;;;;4971428;28;20050;-81
2023/06/07 11:47:05;;;;;;;17.75;5.22;;;23.70;99.90;;;;;;4956487;29;20055;-86
2023/06/07 11:49:33;;;;;;;13.95;5.22;;;23.90;99.90;;;;;;4971960;28;20162;-81
2023/06/07 11:52:00;;;;;;;13.38;5.30;;;24.10;99.90;;;;;;4947057;28;20386;-80
2023/06/07 11:54:28;;;;;;;14.52;4.80;;;24.10;99.90;;;;;;4940147;29;20098;-81
2023/06/07 11:56:54;;;;;;;12.48;5.00;;;23.80;99.90;;;;;;4954483;29;20043;-81
2023/06/07 11:59:25;;;;;;;16.65;4.70;;;23.50;99.90;;;;;;4954822;29;20043;-79
2023/06/07 12:01:55;;;;;;;14.07;5.05;;;24.20;99.90;;;;;;4954389;28;20047;-81
2023/06/07 12:04:23;;;;;;;14.32;5.70;;;24.30;99.90;;;;;;4956821;28;20047;-80
2023/06/07 12:06:50;;;;;;;14.88;5.90;;;24.60;99.90;;;;;;4942181;29;20043;-81
2023/06/07 12:09:20;;;;;;;14.10;4.90;;;24.80;99.90;;;;;;4943342;28;20458;-82
2023/06/07 12:11:46;;;;;;;15.77;4.95;;;24.70;99.90;;;;;;4955025;28;20102;-81
2023/06/07 12:14:14;;;;;;;12.82;5.30;;;24.80;99.90;;;;;;4955092;29;20110;-82
2023/06/07 12:16:41;;;;;;;15.85;5.28;;;25.10;99.90;;;;;;4955411;28;20117;-81
2023/06/07 12:19:08;;;;;;;15.93;5.65;;;25.30;99.90;;;;;;4954920;29;20058;-79
2023/06/07 12:21:36;;;;;;;17.30;5.28;;;25.20;99.90;;;;;;4954176;29;20385;-80
2023/06/07 12:24:05;;;;;;;12.77;5.20;;;25.50;99.90;;;;;;4954349;29;20381;-81
2023/06/07 12:26:32;;;;;;;13.50;5.05;;;25.90;99.90;;;;;;4955105;29;20047;-80
2023/06/07 12:28:59;;;;;;;14.30;5.13;;;25.90;99.90;;;;;;4954974;29;20422;-81
2023/06/07 12:31:26;;;;;;;18.42;5.50;;;26.10;99.90;;;;;;4970390;28;20055;-82
2023/06/07 12:33:54;;;;;;;13.15;5.05;;;26.10;99.90;;;;;;4956406;28;20047;-79
2023/06/07 12:36:20;;;;;;;14.88;5.05;;;26.10;99.90;;;;;;4955009;29;20047;-79
2023/06/07 12:38:47;;;;;;;16.20;5.15;;;25.60;99.90;;;;;;4955601;29;20047;-81
2023/06/07 12:41:14;;;;;;;12.15;4.90;;;25.70;99.90;;;;;;4956249;29;20039;-81
2023/06/07 12:43:41;;;;;;;18.23;5.45;;;25.90;99.90;;;;;;4954764;29;20035;-79
2023/06/07 12:46:07;;;;;;;18.80;4.72;;;25.90;99.90;;;;;;4971551;28;20043;-79
2023/06/07 12:48:34;;;;;;;15.00;4.60;;;26.10;99.90;;;;;;4956483;29;20521;-81
2023/06/07 12:51:01;;;;;;;17.92;5.18;;;26.20;99.90;;;;;;4969789;28;20047;-81
2023/06/07 12:53:28;;;;;;;13.35;4.55;;;26.20;99.90;;;;;;4955257;28;20055;-81
2023/06/07 12:55:57;;;;;;;14.00;4.85;;;26.20;99.90;;;;;;4973904;28;20050;-82
2023/06/07 12:58:23;;;;;;;17.58;4.95;;;26.50;99.90;;;;;;4958670;29;20118;-81
2023/06/07 13:00:50;;;;;;;13.10;4.75;;;26.90;99.90;;;;;;4958832;29;20047;-82
2023/06/07 13:03:19;;;;;;;13.55;4.22;;;27.00;98.90;;;;;;4959082;29;20506;-80
2023/06/07 13:05:47;;;;;;;18.25;5.35;;;26.80;98.60;;;;;;4958522;28;20043;-81
2023/06/07 13:08:14;;;;;;;13.60;5.03;;;26.60;98.70;;;;;;4974791;28;20051;-81
2023/06/07 13:10:40;;;;;;;10.88;4.20;;;26.90;98.40;;;;;;4957973;29;20043;-80
2023/06/07 13:13:08;;;;;;;11.50;4.30;;;27.00;98.40;;;;;;4958996;29;20102;-81
2023/06/07 13:15:35;;;;;;;14.18;4.72;;;27.10;97.80;;;;;;4959667;28;20079;-81
2023/06/07 13:18:02;;;;;;;15.65;4.80;;;27.40;97.80;;;;;;4974084;28;20047;-82
2023/06/07 13:20:29;;;;;;;19.30;4.90;;;27.00;96.70;;;;;;4973957;28;20046;-81